Morris, MN

1:18 AM CST on December 26, 2014 (GMT -0600)
APRSWXNET Morris MN US | Change Station
CLOSE
Current Station
Personal Weather Station
Location: Morris, MN
Elevation: 1174 ft
Nearby Weather Stations

Elev 1174 ft 45.59 °N, 95.90 °W | Updated 49 minutes ago

Light Snow
Light Snow
25 °F
Feels Like 17 °F
N
7
Wind Variable Wind from WNW
Gusts 0.0 mph

Today
High -- | Low -- °F
--% Chance of Precip.
Yesterday
High -- | Low -- °F
Precip. -- in
8:03 AM 4:45 PM
Waxing Crescent, 23% visible
Pressure 29.91 in
Visibility 4.0 miles
Clouds Clear
Windchill 17 °F
Dew Point 23 °F
Humidity 93%
Rainfall -999.00 in
Snow Depth Not available.
UV 0 out of 12
Pollen .10 out of 12
Air Quality Not available.
Flu Activity Not available.
METAR KMOX 260713Z AUTO 35013KT 4SM -SN CLR M03/M04 A2991 RMK AO2

More Conditions Fewer Conditions

Pressure 29.91 in
Visibility 4.0 miles
Clouds Clear
Windchill 17 °F
Dew Point 23 °F
Humidity 93%
Rainfall -999.00 in
Snow Depth Not available.
UV 0 out of 12
Pollen .10 out of 12
Air Quality Not available.
Flu Activity Not available.
METAR KMOX 260713Z AUTO 35013KT 4SM -SN CLR M03/M04 A2991 RMK AO2

More Conditions Fewer Conditions

10-Day Weather Forecast

Almanac

Astronomy

Dec. 26, 2014 Rise Set
Actual Time
Civil Twilight
Nautical Twilight
Astronomical Twilight
Moon
Length of Visible Light
Length of Day
Tomorrow will be .
, % of the Moon is Illuminated

Today's Extremes

State Highs State Lows

Community

WunderPhotos

Upload Photos

1,780,571 photos uploaded!

WunderBlogs® & News

Nearby

Air Quality

  Air Quality AQ Index Pollutant
Not available.

Snow Depth

Station Depth Elevation

Earthquake Activity

City Distance Mag. Time & Date
Minimum magnitude displayed is 2.5.

Coastal Water Temperatures

Place Temperature

Nearby Weather Stations